createdAt,value
2018-07-05T21:05:26.178Z,27.00
2018-07-05T21:10:33.574Z,25.10
2018-07-05T21:13:13.228Z,23.60
2018-07-05T21:15:53.233Z,21.40
2018-07-05T21:18:33.029Z,20.10
2018-07-05T21:22:15.883Z,19.40
2018-07-05T21:24:55.483Z,19.00
2018-07-05T21:27:35.166Z,18.80
2018-07-05T21:30:14.790Z,19.10
2018-07-05T21:32:54.520Z,18.90
2018-07-05T21:35:34.433Z,19.40
2018-07-05T21:38:14.270Z,19.80
2018-07-05T21:40:54.055Z,20.00
2018-07-05T21:43:33.806Z,19.80
2018-07-05T21:46:13.490Z,20.20
2018-07-05T21:48:53.422Z,20.20
2018-07-05T21:51:33.209Z,19.80
2018-07-05T21:54:13.039Z,19.90
2018-07-05T21:56:52.700Z,19.70
2018-07-05T21:59:32.346Z,20.00
2018-07-05T22:02:12.179Z,20.20
2018-07-05T22:04:51.776Z,20.20
2018-07-05T22:07:31.550Z,20.00
2018-07-05T22:10:11.389Z,20.40
2018-07-05T22:12:51.134Z,20.60
2018-07-05T22:15:31.019Z,20.40
2018-07-05T22:18:16.250Z,20.50
2018-07-05T22:21:01.514Z,20.10
2018-07-05T22:23:46.824Z,20.00
2018-07-05T22:26:31.670Z,20.10
2018-07-05T22:29:16.985Z,19.80
2018-07-05T22:31:59.358Z,19.60
2018-07-05T22:34:39.078Z,19.90
2018-07-05T22:37:18.724Z,20.30
2018-07-05T22:39:58.478Z,19.90
2018-07-05T22:42:38.168Z,19.70
2018-07-05T22:45:17.975Z,19.40
2018-07-05T22:47:57.859Z,19.50
2018-07-05T22:50:37.574Z,19.90
2018-07-05T22:53:17.429Z,20.00
2018-07-05T22:58:31.274Z,19.80
2018-07-05T23:01:11.076Z,20.00
2018-07-05T23:03:50.877Z,19.80
2018-07-05T23:06:30.708Z,20.10
2018-07-05T23:09:10.542Z,20.00
2018-07-05T23:11:50.349Z,19.70
2018-07-05T23:14:30.110Z,19.50
2018-07-05T23:17:09.794Z,19.70
2018-07-05T23:19:49.452Z,19.90
2018-07-05T23:22:29.050Z,20.00
2018-07-05T23:25:08.767Z,20.10
2018-07-05T23:30:22.290Z,19.80
2018-07-05T23:33:01.996Z,19.60
2018-07-05T23:35:41.677Z,19.90
2018-07-05T23:38:21.359Z,19.60
2018-07-05T23:41:01.225Z,19.50
2018-07-05T23:43:41.211Z,19.20
2018-07-05T23:46:20.829Z,18.70
2018-07-05T23:49:00.431Z,18.50
2018-07-05T23:51:40.115Z,18.60
2018-07-05T23:54:19.747Z,19.00
2018-07-05T23:56:59.501Z,19.40
2018-07-05T23:59:39.307Z,19.10
